createdAt,value
2023-02-03T00:00:01.896Z,5.65
2023-02-03T00:02:39.585Z,5.69
2023-02-03T00:05:08.977Z,5.74
2023-02-03T00:07:40.712Z,5.73
2023-02-03T00:10:09.568Z,5.77
2023-02-03T00:12:37.673Z,5.76
2023-02-03T00:15:06.331Z,5.75
2023-02-03T00:17:37.214Z,5.69
2023-02-03T00:20:08.237Z,5.66
2023-02-03T00:22:36.188Z,5.58
2023-02-03T00:25:06.247Z,5.51
2023-02-03T00:27:35.048Z,5.48
2023-02-03T00:30:03.129Z,5.48
2023-02-03T00:32:31.568Z,5.44
2023-02-03T00:35:01.878Z,5.46
2023-02-03T00:37:29.753Z,5.49
2023-02-03T00:39:57.703Z,5.54
2023-02-03T00:42:27.035Z,5.49
2023-02-03T00:44:55.127Z,5.56
2023-02-03T00:47:23.378Z,5.54
2023-02-03T00:49:51.845Z,5.64
2023-02-03T00:52:19.995Z,5.66
2023-02-03T00:54:47.828Z,5.69
2023-02-03T00:57:16.088Z,5.78
2023-02-03T00:59:45.383Z,5.85
2023-02-03T01:02:13.387Z,5.97
2023-02-03T01:04:41.323Z,5.98
2023-02-03T01:07:09.445Z,6.04
2023-02-03T01:09:38.359Z,6.01
2023-02-03T01:12:06.853Z,6.02
2023-02-03T01:14:37.428Z,6.01
2023-02-03T01:17:06.917Z,5.99
2023-02-03T01:19:34.918Z,6.03
2023-02-03T01:22:02.810Z,6.08
2023-02-03T01:24:33.446Z,6.09
2023-02-03T01:27:06.285Z,6.04
2023-02-03T01:29:34.312Z,6.04
2023-02-03T01:32:02.263Z,6.07
2023-02-03T01:34:31.677Z,6.07
2023-02-03T01:37:00.607Z,6.02
2023-02-03T01:39:29.625Z,6.04
2023-02-03T01:41:58.037Z,6.02
2023-02-03T01:44:44.070Z,6.03
2023-02-03T01:47:19.688Z,6.06
2023-02-03T01:49:55.121Z,6.09
2023-02-03T01:52:23.311Z,6.06
2023-02-03T01:54:53.303Z,6.08
2023-02-03T01:57:26.169Z,6.04
2023-02-03T01:59:59.027Z,6.06
2023-02-03T02:02:33.462Z,6.07
2023-02-03T02:05:07.962Z,6.14
2023-02-03T02:07:38.741Z,6.13
2023-02-03T02:10:07.499Z,6.14
2023-02-03T02:12:35.601Z,6.12
2023-02-03T02:15:04.453Z,6.12
2023-02-03T02:18:10.010Z,6.12
2023-02-03T02:21:11.186Z,6.13
2023-02-03T02:24:13.337Z,6.12
2023-02-03T02:26:52.762Z,6.10
2023-02-03T02:29:48.005Z,6.12
2023-02-03T02:32:29.795Z,6.10
2023-02-03T02:35:10.418Z,6.13
2023-02-03T02:37:51.102Z,6.18
2023-02-03T02:40:27.342Z,6.20
2023-02-03T02:43:05.962Z,6.24
2023-02-03T02:45:46.002Z,6.18
2023-02-03T02:48:22.511Z,6.17
2023-02-03T02:50:54.457Z,6.17
2023-02-03T02:53:26.913Z,6.15
2023-02-03T02:56:00.650Z,6.22
2023-02-03T02:58:31.979Z,6.21
2023-02-03T03:01:00.093Z,6.22
2023-02-03T03:03:29.666Z,6.21
2023-02-03T03:06:03.118Z,6.19
2023-02-03T03:08:40.806Z,6.20
2023-02-03T03:11:08.872Z,6.17
2023-02-03T03:13:40.759Z,6.18
2023-02-03T03:16:12.302Z,6.18
2023-02-03T03:18:48.262Z,6.12
2023-02-03T03:21:19.058Z,6.14
2023-02-03T03:23:52.915Z,6.13
2023-02-03T03:26:29.456Z,6.12
2023-02-03T03:29:04.655Z,6.11
2023-02-03T03:31:32.835Z,6.02
2023-02-03T03:34:02.519Z,6.01
2023-02-03T03:36:34.199Z,6.01
2023-02-03T03:39:10.830Z,6.05
2023-02-03T03:41:47.628Z,6.08
2023-02-03T03:44:20.076Z,6.09
2023-02-03T03:46:54.652Z,6.11
2023-02-03T03:49:26.045Z,6.15
2023-02-03T03:51:59.495Z,6.17
2023-02-03T03:54:29.694Z,6.16
2023-02-03T03:57:01.907Z,6.26
2023-02-03T03:59:37.140Z,6.23
2023-02-03T04:02:05.555Z,6.24
2023-02-03T04:04:39.076Z,6.27
2023-02-03T04:07:07.376Z,6.23
2023-02-03T04:09:36.629Z,6.24
2023-02-03T04:12:06.187Z,6.26
2023-02-03T04:14:38.853Z,6.24
2023-02-03T04:17:07.939Z,6.26
2023-02-03T04:19:37.345Z,6.22
2023-02-03T04:22:09.368Z,6.25
2023-02-03T04:24:37.477Z,6.22
2023-02-03T04:27:05.572Z,6.24
2023-02-03T04:29:33.914Z,6.14
2023-02-03T04:32:02.382Z,6.17
2023-02-03T04:34:33.168Z,6.21
2023-02-03T04:37:02.432Z,6.24
2023-02-03T04:39:32.878Z,6.24
2023-02-03T04:42:02.996Z,6.24
2023-02-03T04:44:31.196Z,6.25
2023-02-03T04:46:59.218Z,6.28
2023-02-03T04:49:27.073Z,6.28
2023-02-03T04:53:34.130Z,6.27
2023-02-03T04:56:02.456Z,6.28
2023-02-03T04:58:30.433Z,6.29
2023-02-03T05:00:58.592Z,6.15
2023-02-03T05:03:28.948Z,6.23
2023-02-03T05:06:03.445Z,6.30
2023-02-03T05:08:35.216Z,6.28
2023-02-03T05:11:04.712Z,6.29
2023-02-03T05:13:33.760Z,6.29
2023-02-03T05:16:04.045Z,6.27
2023-02-03T05:18:34.145Z,6.29
2023-02-03T05:21:02.227Z,6.28
2023-02-03T05:23:30.346Z,6.21
2023-02-03T05:26:01.939Z,6.24
2023-02-03T05:28:29.857Z,6.20
2023-02-03T05:30:59.268Z,6.16
2023-02-03T05:33:27.400Z,6.13
2023-02-03T05:35:58.000Z,6.12
2023-02-03T05:38:26.304Z,6.09
2023-02-03T05:41:12.188Z,6.06
2023-02-03T05:43:41.447Z,6.02
2023-02-03T05:46:09.424Z,5.99
2023-02-03T05:48:37.566Z,6.00
2023-02-03T05:51:05.993Z,5.98
2023-02-03T05:53:33.876Z,5.93
2023-02-03T05:56:02.148Z,5.90
2023-02-03T05:58:30.243Z,5.91
2023-02-03T06:00:59.686Z,5.95
2023-02-03T06:03:27.825Z,6.01
2023-02-03T06:05:56.704Z,5.99
2023-02-03T06:08:28.601Z,5.96
2023-02-03T06:10:59.891Z,6.00
2023-02-03T06:13:28.745Z,6.02
2023-02-03T06:15:57.498Z,6.02
2023-02-03T06:18:29.065Z,6.02
2023-02-03T06:20:57.294Z,6.00
2023-02-03T06:23:25.352Z,5.99
2023-02-03T06:25:53.658Z,6.02
2023-02-03T06:28:21.710Z,6.07
2023-02-03T06:30:51.748Z,6.06
2023-02-03T06:33:22.172Z,6.08
2023-02-03T06:35:51.857Z,6.12
2023-02-03T06:38:19.851Z,6.11
2023-02-03T06:40:48.192Z,6.17
2023-02-03T06:43:16.525Z,6.14
2023-02-03T06:45:47.106Z,6.20
2023-02-03T06:48:17.997Z,6.19
2023-02-03T06:50:48.828Z,6.23
2023-02-03T06:53:19.870Z,6.23
2023-02-03T06:55:48.847Z,6.25
2023-02-03T06:58:17.101Z,6.28
2023-02-03T07:00:45.104Z,6.25
2023-02-03T07:03:13.375Z,6.29
2023-02-03T07:05:43.809Z,6.33
2023-02-03T07:08:11.949Z,6.32
2023-02-03T07:10:41.878Z,6.29
2023-02-03T07:13:10.128Z,6.29
2023-02-03T07:15:38.397Z,6.30
2023-02-03T07:18:06.624Z,6.26
2023-02-03T07:20:37.641Z,6.27
2023-02-03T07:23:05.701Z,6.30
2023-02-03T07:25:33.738Z,6.27
2023-02-03T07:28:03.492Z,6.28
2023-02-03T07:30:31.621Z,6.30
2023-02-03T07:32:59.766Z,6.35
2023-02-03T07:35:28.263Z,6.33
2023-02-03T07:38:00.917Z,6.34
2023-02-03T07:40:29.077Z,6.40
2023-02-03T07:42:57.474Z,6.41
2023-02-03T07:45:26.985Z,6.43
2023-02-03T07:47:55.001Z,6.44
2023-02-03T07:50:25.493Z,6.46
2023-02-03T07:52:56.657Z,6.46
2023-02-03T07:55:24.656Z,6.47
2023-02-03T07:57:54.749Z,6.52
2023-02-03T08:00:23.438Z,6.48
2023-02-03T08:02:53.548Z,6.56
2023-02-03T08:05:21.639Z,6.57
2023-02-03T08:07:52.434Z,6.58
2023-02-03T08:10:20.637Z,6.61
2023-02-03T08:12:48.744Z,6.59
2023-02-03T08:15:17.298Z,6.59
2023-02-03T08:17:46.434Z,6.61
2023-02-03T08:20:18.803Z,6.60
2023-02-03T08:22:46.870Z,6.64
2023-02-03T08:25:17.194Z,6.63
2023-02-03T08:27:45.600Z,6.64
2023-02-03T08:30:15.296Z,6.65
2023-02-03T08:32:43.463Z,6.69
2023-02-03T08:35:11.655Z,6.68
2023-02-03T08:37:41.403Z,6.71
2023-02-03T08:40:10.532Z,6.73
2023-02-03T08:42:38.759Z,6.75
2023-02-03T08:45:08.133Z,6.83
2023-02-03T08:47:38.111Z,6.87
2023-02-03T08:50:08.085Z,6.91
2023-02-03T08:52:36.435Z,6.96
2023-02-03T08:55:06.535Z,6.98
2023-02-03T08:57:35.335Z,7.00
2023-02-03T09:00:05.197Z,7.06
2023-02-03T09:02:33.407Z,7.02
2023-02-03T09:05:01.482Z,7.02
2023-02-03T09:07:32.070Z,7.05
2023-02-03T09:10:00.065Z,7.05
2023-02-03T09:12:29.469Z,7.07
2023-02-03T09:14:57.480Z,7.07
2023-02-03T09:17:25.639Z,7.15
2023-02-03T09:19:55.761Z,7.17
2023-02-03T09:22:24.300Z,7.20
2023-02-03T09:24:52.481Z,7.27
2023-02-03T09:27:20.682Z,7.28
2023-02-03T09:29:50.154Z,7.19
2023-02-03T09:32:18.489Z,7.29
2023-02-03T09:34:47.036Z,7.29
2023-02-03T09:37:14.925Z,7.36
2023-02-03T09:39:43.273Z,7.33
2023-02-03T09:42:34.869Z,7.44
2023-02-03T09:45:15.849Z,7.43
2023-02-03T09:47:45.282Z,7.45
2023-02-03T09:50:20.806Z,7.56
2023-02-03T09:54:43.410Z,7.66
2023-02-03T09:57:17.981Z,7.74
2023-02-03T09:59:46.206Z,7.62
2023-02-03T10:02:29.917Z,7.64
2023-02-03T10:05:02.959Z,7.63
2023-02-03T10:07:43.237Z,7.54
2023-02-03T10:10:23.267Z,7.53
2023-02-03T10:13:10.642Z,7.47
2023-02-03T10:16:18.587Z,7.43
2023-02-03T10:18:51.464Z,7.49
2023-02-03T10:21:33.837Z,7.51
2023-02-03T10:24:04.841Z,7.49
2023-02-03T10:26:36.576Z,7.47
2023-02-03T10:29:20.580Z,7.52
2023-02-03T10:31:49.330Z,7.50
2023-02-03T10:34:19.924Z,7.51
2023-02-03T10:36:55.992Z,7.49
2023-02-03T10:39:33.089Z,7.56
2023-02-03T10:42:05.417Z,7.62
2023-02-03T10:44:40.792Z,7.57
2023-02-03T10:47:21.719Z,7.63
2023-02-03T10:49:52.518Z,7.66
2023-02-03T10:52:31.116Z,7.66
2023-02-03T10:55:00.503Z,7.71
2023-02-03T10:57:32.545Z,7.77
2023-02-03T11:00:22.488Z,7.78
2023-02-03T11:02:57.576Z,7.82
2023-02-03T11:05:26.600Z,7.79
2023-02-03T11:07:55.755Z,7.79
2023-02-03T11:10:36.095Z,7.81
2023-02-03T11:13:17.133Z,7.81
2023-02-03T11:15:52.686Z,7.72
2023-02-03T11:18:34.904Z,7.69
2023-02-03T11:21:08.476Z,7.66
2023-02-03T11:23:45.909Z,7.71
2023-02-03T11:26:16.652Z,7.60
2023-02-03T11:28:51.637Z,7.60
2023-02-03T11:31:23.646Z,7.56
2023-02-03T11:33:56.333Z,7.58
2023-02-03T11:36:29.264Z,7.57
2023-02-03T11:39:19.887Z,7.53
2023-02-03T11:41:49.921Z,7.49
2023-02-03T11:44:22.654Z,7.55
2023-02-03T11:46:54.771Z,7.58
2023-02-03T11:50:07.576Z,7.60
2023-02-03T11:52:51.321Z,7.60
2023-02-03T11:55:42.311Z,7.64
2023-02-03T11:58:29.145Z,7.66
2023-02-03T12:01:07.177Z,7.76
2023-02-03T12:04:07.086Z,7.83
2023-02-03T12:06:48.271Z,7.76
2023-02-03T12:09:29.616Z,7.76
2023-02-03T12:12:19.038Z,7.75
2023-02-03T12:15:01.095Z,7.77
2023-02-03T12:17:44.889Z,7.73
2023-02-03T12:20:28.325Z,7.77
2023-02-03T12:23:07.295Z,7.86
2023-02-03T12:25:50.115Z,7.90
2023-02-03T12:28:33.987Z,7.92
2023-02-03T12:31:10.583Z,7.81
2023-02-03T12:33:46.028Z,7.81
2023-02-03T12:36:19.215Z,7.75
2023-02-03T12:38:54.732Z,7.73
2023-02-03T12:41:27.383Z,7.68
2023-02-03T12:44:01.587Z,7.60
2023-02-03T12:46:33.337Z,7.56
2023-02-03T12:49:06.884Z,7.64
2023-02-03T12:51:42.609Z,7.55
2023-02-03T12:54:28.714Z,7.53
2023-02-03T12:57:09.223Z,7.53
2023-02-03T12:59:39.658Z,7.58
2023-02-03T13:02:18.419Z,7.61
2023-02-03T13:04:56.005Z,7.66
2023-02-03T13:07:30.203Z,7.75
2023-02-03T13:10:03.481Z,7.76
2023-02-03T13:12:41.469Z,7.78
2023-02-03T13:15:24.879Z,7.85
2023-02-03T13:17:58.430Z,7.86
2023-02-03T13:20:31.557Z,7.88
2023-02-03T13:22:59.983Z,7.81
2023-02-03T13:25:39.973Z,7.93
2023-02-03T13:28:20.163Z,7.75
2023-02-03T13:31:09.805Z,7.75
2023-02-03T13:33:52.125Z,7.69
2023-02-03T13:36:55.077Z,7.67
2023-02-03T13:39:51.941Z,7.63
2023-02-03T13:42:25.884Z,7.66
2023-02-03T13:44:58.218Z,7.64
2023-02-03T13:47:30.070Z,7.56
2023-02-03T13:50:05.717Z,7.64
2023-02-03T13:52:39.239Z,7.54
2023-02-03T13:55:08.431Z,7.55
2023-02-03T13:57:39.195Z,7.54
2023-02-03T14:00:28.971Z,7.57
2023-02-03T14:02:57.772Z,7.57
2023-02-03T14:05:44.371Z,7.57
2023-02-03T14:08:49.018Z,7.56
2023-02-03T14:11:56.968Z,7.61
2023-02-03T14:15:04.466Z,7.64
2023-02-03T14:18:06.657Z,7.56
2023-02-03T14:20:44.257Z,7.56
2023-02-03T14:23:17.751Z,7.62
2023-02-03T14:25:49.508Z,7.63
2023-02-03T14:28:21.305Z,7.65
2023-02-03T14:31:15.008Z,7.69
2023-02-03T14:34:13.068Z,7.76
2023-02-03T14:36:55.109Z,7.66
2023-02-03T14:39:48.783Z,7.80
2023-02-03T14:42:30.116Z,7.93
2023-02-03T14:45:12.139Z,7.88
2023-02-03T14:48:00.609Z,7.96
2023-02-03T14:50:45.801Z,7.96
2023-02-03T14:55:46.434Z,7.89
2023-02-03T14:58:24.589Z,7.84
2023-02-03T15:00:54.546Z,7.61
2023-02-03T15:03:25.443Z,7.78
2023-02-03T15:05:56.434Z,7.73
2023-02-03T15:08:40.871Z,7.73
2023-02-03T15:11:28.296Z,7.64
2023-02-03T15:13:58.524Z,7.62
2023-02-03T15:16:27.260Z,7.49
2023-02-03T15:18:57.507Z,7.55
2023-02-03T15:21:26.549Z,7.52
2023-02-03T15:23:55.416Z,7.51
2023-02-03T15:26:25.324Z,7.51
2023-02-03T15:29:00.152Z,7.45
2023-02-03T15:31:34.398Z,7.49
2023-02-03T15:34:13.405Z,7.52
2023-02-03T15:36:45.239Z,7.47
2023-02-03T15:39:23.784Z,7.54
2023-02-03T15:41:54.996Z,7.55
2023-02-03T15:44:30.679Z,7.49
2023-02-03T15:47:01.152Z,7.47
2023-02-03T15:49:34.801Z,7.42
2023-02-03T15:52:04.638Z,7.41
2023-02-03T15:54:41.023Z,7.41
2023-02-03T15:57:18.423Z,7.32
2023-02-03T15:59:54.785Z,7.32
2023-02-03T16:02:28.482Z,7.28
2023-02-03T16:04:57.139Z,7.25
2023-02-03T16:07:28.069Z,7.22
2023-02-03T16:09:57.853Z,7.22
2023-02-03T16:12:27.535Z,7.06
2023-02-03T16:14:59.021Z,7.20
2023-02-03T16:17:30.152Z,7.14
2023-02-03T16:20:24.695Z,7.16
2023-02-03T16:23:04.675Z,7.12
2023-02-03T16:25:35.014Z,7.14
2023-02-03T16:28:23.345Z,7.14
2023-02-03T16:31:16.193Z,7.05
2023-02-03T16:34:04.505Z,7.09
2023-02-03T16:36:50.374Z,7.13
2023-02-03T16:39:38.259Z,7.16
2023-02-03T16:42:32.436Z,7.16
2023-02-03T16:45:17.750Z,7.16
2023-02-03T16:48:06.060Z,7.15
2023-02-03T16:50:52.825Z,7.18
2023-02-03T16:53:24.377Z,7.15
2023-02-03T16:55:54.943Z,7.15
2023-02-03T16:58:23.659Z,7.20
2023-02-03T17:00:53.633Z,7.15
2023-02-03T17:03:25.531Z,7.09
2023-02-03T17:05:54.691Z,7.04
2023-02-03T17:08:25.154Z,6.94
2023-02-03T17:10:53.938Z,6.88
2023-02-03T17:13:24.383Z,6.85
2023-02-03T17:15:53.799Z,6.80
2023-02-03T17:18:23.824Z,6.79
2023-02-03T17:20:52.602Z,6.78
2023-02-03T17:23:21.309Z,6.75
2023-02-03T17:25:50.929Z,6.73
2023-02-03T17:28:19.111Z,6.74
2023-02-03T17:30:47.127Z,6.73
2023-02-03T17:33:15.822Z,6.75
2023-02-03T17:35:46.132Z,6.76
2023-02-03T17:38:15.497Z,6.70
2023-02-03T17:54:43.129Z,6.76
2023-02-03T17:57:11.214Z,6.77
2023-02-03T17:59:39.766Z,6.77
2023-02-03T18:02:08.092Z,6.80
2023-02-03T18:04:36.944Z,6.83
2023-02-03T18:07:06.280Z,6.83
2023-02-03T18:09:34.399Z,6.85
2023-02-03T18:12:02.428Z,6.85
2023-02-03T18:14:30.819Z,6.88
2023-02-03T18:17:00.937Z,6.91
2023-02-03T18:19:29.722Z,6.88
2023-02-03T18:21:59.684Z,6.90
2023-02-03T18:24:30.071Z,6.92
2023-02-03T18:27:00.301Z,6.93
2023-02-03T18:29:29.554Z,6.95
2023-02-03T18:31:57.572Z,6.97
2023-02-03T18:34:25.865Z,6.96
2023-02-03T18:36:53.929Z,6.97
2023-02-03T18:39:21.934Z,7.00
2023-02-03T18:41:51.269Z,7.01
2023-02-03T18:44:19.588Z,7.06
2023-02-03T18:46:47.968Z,7.03
2023-02-03T18:49:16.162Z,7.05
2023-02-03T18:51:44.193Z,7.05
2023-02-03T18:54:13.428Z,7.03
2023-02-03T18:56:41.374Z,7.02
2023-02-03T18:59:12.124Z,7.06
2023-02-03T19:01:40.699Z,7.04
2023-02-03T19:04:09.256Z,7.05
2023-02-03T19:06:37.505Z,7.03
2023-02-03T19:09:06.581Z,7.08
2023-02-03T19:11:36.870Z,7.10
2023-02-03T19:14:05.293Z,7.06
2023-02-03T19:16:34.736Z,7.10
2023-02-03T19:19:02.951Z,7.07
2023-02-03T19:21:34.144Z,7.00
2023-02-03T19:24:02.299Z,6.97
2023-02-03T19:26:33.375Z,6.96
2023-02-03T19:29:01.345Z,6.99
2023-02-03T19:31:35.866Z,7.00
2023-02-03T19:34:03.931Z,7.01
2023-02-03T19:36:32.391Z,7.11
2023-02-03T19:39:00.388Z,7.11
2023-02-03T19:41:30.756Z,7.14
2023-02-03T19:44:00.969Z,7.11
2023-02-03T19:46:33.047Z,7.20
2023-02-03T19:49:06.508Z,7.22
2023-02-03T19:51:35.551Z,7.19
2023-02-03T19:56:34.687Z,7.13
2023-02-03T19:59:03.321Z,7.10
2023-02-03T20:01:31.969Z,7.09
2023-02-03T20:04:00.061Z,7.07
2023-02-03T20:06:29.113Z,7.06
2023-02-03T20:08:57.189Z,7.05
2023-02-03T20:11:25.536Z,7.05
2023-02-03T20:13:57.748Z,7.06
2023-02-03T20:16:26.018Z,7.04
2023-02-03T20:18:56.516Z,7.10
2023-02-03T20:21:24.861Z,7.17
2023-02-03T20:23:53.698Z,7.19
2023-02-03T20:26:22.297Z,7.22
2023-02-03T20:28:50.522Z,7.27
2023-02-03T20:31:21.523Z,7.40
2023-02-03T20:33:50.736Z,7.45
2023-02-03T20:36:18.846Z,7.52
2023-02-03T20:38:47.835Z,7.61
2023-02-03T20:41:18.760Z,7.64
2023-02-03T20:43:47.044Z,7.71
2023-02-03T20:46:16.898Z,7.76
2023-02-03T20:48:48.525Z,7.76
2023-02-03T20:51:21.004Z,7.78
2023-02-03T20:53:49.994Z,7.78
2023-02-03T20:56:21.401Z,7.77
2023-02-03T20:58:49.872Z,7.73
2023-02-03T21:01:19.935Z,7.77
2023-02-03T21:04:10.670Z,7.74
2023-02-03T21:06:40.000Z,7.74
2023-02-03T21:09:15.438Z,7.71
2023-02-03T21:11:44.131Z,7.72
2023-02-03T21:14:21.024Z,7.69
2023-02-03T21:16:53.977Z,7.71
2023-02-03T21:19:29.767Z,7.67
2023-02-03T21:21:58.524Z,7.65
2023-02-03T21:24:29.436Z,7.64
2023-02-03T21:27:01.269Z,7.63
2023-02-03T21:29:32.637Z,7.58
2023-02-03T21:32:01.897Z,7.55
2023-02-03T21:34:35.457Z,7.53
2023-02-03T21:37:15.991Z,7.52
2023-02-03T21:39:47.567Z,7.51
2023-02-03T21:42:41.986Z,7.34
2023-02-03T21:45:36.901Z,7.45
2023-02-03T21:48:33.227Z,7.43
2023-02-03T21:51:15.224Z,7.43
2023-02-03T21:53:51.415Z,7.53
2023-02-03T21:56:21.747Z,7.56
2023-02-03T21:58:50.942Z,7.55
2023-02-03T22:01:23.232Z,7.52
2023-02-03T22:03:53.813Z,7.51
2023-02-03T22:06:29.550Z,7.55
2023-02-03T22:08:59.591Z,7.59
2023-02-03T22:11:29.162Z,7.57
2023-02-03T22:13:57.865Z,7.56
2023-02-03T22:16:28.303Z,7.54
2023-02-03T22:18:59.341Z,7.53
2023-02-03T22:21:30.325Z,7.60
2023-02-03T22:24:00.771Z,7.58
2023-02-03T22:26:29.248Z,7.55
2023-02-03T22:28:57.530Z,7.54
2023-02-03T22:31:25.751Z,7.61
2023-02-03T22:33:54.417Z,7.56
2023-02-03T22:36:25.887Z,7.54
2023-02-03T22:38:55.382Z,7.54
2023-02-03T22:41:23.356Z,7.51
2023-02-03T22:43:51.399Z,7.62
2023-02-03T22:46:20.162Z,7.61
2023-02-03T22:48:48.494Z,7.63
2023-02-03T22:51:16.577Z,7.61
2023-02-03T22:53:47.632Z,7.58
2023-02-03T22:56:17.121Z,7.57
2023-02-03T22:58:45.360Z,7.58
2023-02-03T23:01:13.559Z,7.58
2023-02-03T23:03:41.805Z,7.57
2023-02-03T23:06:10.458Z,7.54
2023-02-03T23:08:40.815Z,7.51
2023-02-03T23:11:09.308Z,7.51
2023-02-03T23:13:38.821Z,7.53
2023-02-03T23:16:07.409Z,7.49
2023-02-03T23:18:35.587Z,7.48
2023-02-03T23:21:03.863Z,7.49
2023-02-03T23:23:31.772Z,7.51
2023-02-03T23:26:02.451Z,7.56
2023-02-03T23:28:30.780Z,7.54
2023-02-03T23:31:00.097Z,7.51
2023-02-03T23:33:28.533Z,7.51
2023-02-03T23:35:55.672Z,7.49
2023-02-03T23:38:24.008Z,7.49
2023-02-03T23:40:54.094Z,7.49
2023-02-03T23:43:22.546Z,7.50
2023-02-03T23:45:50.619Z,7.48
2023-02-03T23:48:20.024Z,7.51
2023-02-03T23:50:49.022Z,7.46
2023-02-03T23:53:20.791Z,7.44
2023-02-03T23:55:49.142Z,7.46
2023-02-03T23:58:17.281Z,7.38
